sensor_id;sensor_type;location;lat;lon;timestamp;P1;durP1;ratioP1;P2;durP2;ratioP2
75847;SDS011;65750;47.540;19.090;2022-12-20T00:01:37;52.00;;;19.03;;
75847;SDS011;65750;47.540;19.090;2022-12-20T00:04:05;48.53;;;17.27;;
75847;SDS011;65750;47.540;19.090;2022-12-20T00:06:32;48.58;;;17.95;;
75847;SDS011;65750;47.540;19.090;2022-12-20T00:09:00;49.42;;;16.67;;
75847;SDS011;65750;47.540;19.090;2022-12-20T00:11:28;46.75;;;17.00;;
75847;SDS011;65750;47.540;19.090;2022-12-20T00:13:57;52.15;;;16.62;;
75847;SDS011;65750;47.540;19.090;2022-12-20T00:16:25;49.78;;;17.10;;
75847;SDS011;65750;47.540;19.090;2022-12-20T00:18:53;48.67;;;17.65;;
75847;SDS011;65750;47.540;19.090;2022-12-20T00:21:22;48.42;;;17.00;;
75847;SDS011;65750;47.540;19.090;2022-12-20T00:23:50;52.33;;;17.87;;
75847;SDS011;65750;47.540;19.090;2022-12-20T00:26:18;52.10;;;17.23;;
75847;SDS011;65750;47.540;19.090;2022-12-20T00:28:47;46.55;;;16.58;;
75847;SDS011;65750;47.540;19.090;2022-12-20T00:31:16;48.08;;;16.77;;
75847;SDS011;65750;47.540;19.090;2022-12-20T00:33:45;50.78;;;16.85;;
75847;SDS011;65750;47.540;19.090;2022-12-20T00:36:13;46.22;;;16.40;;
75847;SDS011;65750;47.540;19.090;2022-12-20T00:38:41;51.78;;;16.77;;
75847;SDS011;65750;47.540;19.090;2022-12-20T00:41:10;49.72;;;16.25;;
75847;SDS011;65750;47.540;19.090;2022-12-20T00:43:38;49.13;;;16.70;;
75847;SDS011;65750;47.540;19.090;2022-12-20T00:46:06;51.63;;;18.15;;
75847;SDS011;65750;47.540;19.090;2022-12-20T00:48:35;53.50;;;17.25;;
75847;SDS011;65750;47.540;19.090;2022-12-20T00:51:03;48.30;;;17.80;;
75847;SDS011;65750;47.540;19.090;2022-12-20T00:53:31;44.65;;;16.15;;
75847;SDS011;65750;47.540;19.090;2022-12-20T00:55:59;50.70;;;18.08;;
75847;SDS011;65750;47.540;19.090;2022-12-20T00:58:26;49.72;;;17.45;;
75847;SDS011;65750;47.540;19.090;2022-12-20T01:00:55;52.30;;;17.52;;
75847;SDS011;65750;47.540;19.090;2022-12-20T01:03:23;49.95;;;16.33;;
75847;SDS011;65750;47.540;19.090;2022-12-20T01:05:51;49.08;;;16.48;;
75847;SDS011;65750;47.540;19.090;2022-12-20T01:08:21;44.45;;;16.48;;
75847;SDS011;65750;47.540;19.090;2022-12-20T01:10:56;51.88;;;17.40;;
75847;SDS011;65750;47.540;19.090;2022-12-20T01:13:24;43.97;;;16.20;;
75847;SDS011;65750;47.540;19.090;2022-12-20T01:15:52;49.47;;;17.00;;
75847;SDS011;65750;47.540;19.090;2022-12-20T01:18:19;47.72;;;15.73;;
75847;SDS011;65750;47.540;19.090;2022-12-20T01:20:46;45.67;;;15.98;;
75847;SDS011;65750;47.540;19.090;2022-12-20T01:23:15;48.45;;;15.48;;
75847;SDS011;65750;47.540;19.090;2022-12-20T01:25:42;47.38;;;15.90;;
75847;SDS011;65750;47.540;19.090;2022-12-20T01:28:10;46.58;;;16.20;;
75847;SDS011;65750;47.540;19.090;2022-12-20T01:30:38;42.20;;;16.27;;
75847;SDS011;65750;47.540;19.090;2022-12-20T01:33:06;45.92;;;15.55;;
75847;SDS011;65750;47.540;19.090;2022-12-20T01:35:33;50.58;;;17.00;;
75847;SDS011;65750;47.540;19.090;2022-12-20T01:38:00;48.55;;;17.30;;
75847;SDS011;65750;47.540;19.090;2022-12-20T01:40:29;53.70;;;17.83;;
75847;SDS011;65750;47.540;19.090;2022-12-20T01:42:57;49.33;;;16.70;;
75847;SDS011;65750;47.540;19.090;2022-12-20T01:45:26;54.75;;;17.35;;
75847;SDS011;65750;47.540;19.090;2022-12-20T01:47:54;52.88;;;17.55;;
75847;SDS011;65750;47.540;19.090;2022-12-20T01:50:21;53.22;;;17.35;;
75847;SDS011;65750;47.540;19.090;2022-12-20T01:52:49;50.78;;;17.48;;
75847;SDS011;65750;47.540;19.090;2022-12-20T01:55:19;46.97;;;16.37;;
75847;SDS011;65750;47.540;19.090;2022-12-20T01:57:51;48.95;;;16.65;;
75847;SDS011;65750;47.540;19.090;2022-12-20T02:00:21;48.50;;;16.80;;
75847;SDS011;65750;47.540;19.090;2022-12-20T02:02:48;45.83;;;15.40;;
75847;SDS011;65750;47.540;19.090;2022-12-20T02:05:17;50.35;;;16.67;;
75847;SDS011;65750;47.540;19.090;2022-12-20T02:07:45;44.15;;;16.30;;
75847;SDS011;65750;47.540;19.090;2022-12-20T02:10:15;46.50;;;17.33;;
75847;SDS011;65750;47.540;19.090;2022-12-20T02:12:43;44.28;;;16.15;;
75847;SDS011;65750;47.540;19.090;2022-12-20T02:20:48;44.33;;;15.75;;
75847;SDS011;65750;47.540;19.090;2022-12-20T02:26:29;40.08;;;14.82;;
75847;SDS011;65750;47.540;19.090;2022-12-20T02:29:09;42.22;;;15.05;;
75847;SDS011;65750;47.540;19.090;2022-12-20T02:31:48;43.95;;;14.68;;
75847;SDS011;65750;47.540;19.090;2022-12-20T02:34:21;44.03;;;14.77;;
75847;SDS011;65750;47.540;19.090;2022-12-20T02:36:50;44.13;;;15.70;;
75847;SDS011;65750;47.540;19.090;2022-12-20T02:39:17;47.67;;;16.62;;
75847;SDS011;65750;47.540;19.090;2022-12-20T02:41:46;45.33;;;16.17;;
75847;SDS011;65750;47.540;19.090;2022-12-20T02:44:16;49.45;;;16.23;;
75847;SDS011;65750;47.540;19.090;2022-12-20T02:47:05;39.53;;;15.35;;
75847;SDS011;65750;47.540;19.090;2022-12-20T02:49:36;44.95;;;16.00;;
75847;SDS011;65750;47.540;19.090;2022-12-20T02:52:07;44.92;;;16.45;;
75847;SDS011;65750;47.540;19.090;2022-12-20T02:54:36;43.38;;;14.70;;
75847;SDS011;65750;47.540;19.090;2022-12-20T02:57:04;43.80;;;15.75;;
75847;SDS011;65750;47.540;19.090;2022-12-20T02:59:35;44.45;;;15.88;;
75847;SDS011;65750;47.540;19.090;2022-12-20T03:02:06;46.37;;;15.57;;
75847;SDS011;65750;47.540;19.090;2022-12-20T03:04:34;40.05;;;15.00;;
75847;SDS011;65750;47.540;19.090;2022-12-20T03:07:04;47.65;;;16.75;;
75847;SDS011;65750;47.540;19.090;2022-12-20T03:09:33;44.67;;;15.30;;
75847;SDS011;65750;47.540;19.090;2022-12-20T03:12:01;47.70;;;15.48;;
75847;SDS011;65750;47.540;19.090;2022-12-20T03:14:29;41.10;;;15.10;;
75847;SDS011;65750;47.540;19.090;2022-12-20T03:16:56;43.17;;;15.88;;
75847;SDS011;65750;47.540;19.090;2022-12-20T03:19:26;44.67;;;15.60;;
75847;SDS011;65750;47.540;19.090;2022-12-20T03:21:53;38.83;;;15.07;;
75847;SDS011;65750;47.540;19.090;2022-12-20T03:24:20;39.65;;;14.70;;
75847;SDS011;65750;47.540;19.090;2022-12-20T03:26:48;35.72;;;13.35;;
75847;SDS011;65750;47.540;19.090;2022-12-20T03:29:17;37.20;;;13.43;;
75847;SDS011;65750;47.540;19.090;2022-12-20T03:31:44;42.30;;;14.70;;
75847;SDS011;65750;47.540;19.090;2022-12-20T03:34:11;40.17;;;14.85;;
75847;SDS011;65750;47.540;19.090;2022-12-20T03:36:41;37.00;;;14.18;;
75847;SDS011;65750;47.540;19.090;2022-12-20T03:39:08;41.10;;;14.77;;
75847;SDS011;65750;47.540;19.090;2022-12-20T03:41:35;38.75;;;13.88;;
75847;SDS011;65750;47.540;19.090;2022-12-20T03:44:03;38.13;;;13.48;;
75847;SDS011;65750;47.540;19.090;2022-12-20T03:46:30;39.25;;;14.18;;
75847;SDS011;65750;47.540;19.090;2022-12-20T03:48:57;36.35;;;13.40;;
75847;SDS011;65750;47.540;19.090;2022-12-20T03:51:25;36.90;;;14.35;;
75847;SDS011;65750;47.540;19.090;2022-12-20T03:53:54;37.28;;;14.32;;
75847;SDS011;65750;47.540;19.090;2022-12-20T03:56:22;39.63;;;13.85;;
75847;SDS011;65750;47.540;19.090;2022-12-20T03:58:49;39.53;;;13.60;;
75847;SDS011;65750;47.540;19.090;2022-12-20T04:01:20;34.88;;;13.30;;
75847;SDS011;65750;47.540;19.090;2022-12-20T04:03:48;38.38;;;13.10;;
75847;SDS011;65750;47.540;19.090;2022-12-20T04:06:16;39.63;;;13.93;;
75847;SDS011;65750;47.540;19.090;2022-12-20T04:08:43;40.35;;;13.88;;
75847;SDS011;65750;47.540;19.090;2022-12-20T04:11:13;38.85;;;14.23;;
75847;SDS011;65750;47.540;19.090;2022-12-20T04:13:43;34.40;;;12.60;;
75847;SDS011;65750;47.540;19.090;2022-12-20T04:16:11;36.90;;;12.93;;
75847;SDS011;65750;47.540;19.090;2022-12-20T04:18:40;36.92;;;12.68;;
75847;SDS011;65750;47.540;19.090;2022-12-20T04:21:08;37.28;;;13.60;;
75847;SDS011;65750;47.540;19.090;2022-12-20T04:23:38;33.13;;;12.50;;
75847;SDS011;65750;47.540;19.090;2022-12-20T04:26:06;37.72;;;13.50;;
75847;SDS011;65750;47.540;19.090;2022-12-20T04:28:35;39.35;;;13.32;;
75847;SDS011;65750;47.540;19.090;2022-12-20T04:31:05;40.00;;;12.43;;
75847;SDS011;65750;47.540;19.090;2022-12-20T04:33:33;41.72;;;14.20;;
75847;SDS011;65750;47.540;19.090;2022-12-20T04:36:00;35.60;;;13.25;;
75847;SDS011;65750;47.540;19.090;2022-12-20T04:38:27;36.25;;;13.23;;
75847;SDS011;65750;47.540;19.090;2022-12-20T04:40:55;36.38;;;13.25;;
75847;SDS011;65750;47.540;19.090;2022-12-20T04:43:23;36.38;;;12.90;;
75847;SDS011;65750;47.540;19.090;2022-12-20T04:45:53;35.20;;;12.52;;
75847;SDS011;65750;47.540;19.090;2022-12-20T04:48:22;32.78;;;11.80;;
75847;SDS011;65750;47.540;19.090;2022-12-20T04:50:51;33.42;;;12.32;;
75847;SDS011;65750;47.540;19.090;2022-12-20T04:53:19;35.67;;;12.63;;
75847;SDS011;65750;47.540;19.090;2022-12-20T04:56:04;38.10;;;14.18;;
75847;SDS011;65750;47.540;19.090;2022-12-20T04:58:32;34.28;;;12.85;;
75847;SDS011;65750;47.540;19.090;2022-12-20T05:01:02;39.20;;;13.13;;
75847;SDS011;65750;47.540;19.090;2022-12-20T05:03:30;36.28;;;12.88;;
75847;SDS011;65750;47.540;19.090;2022-12-20T05:05:57;42.00;;;13.70;;
75847;SDS011;65750;47.540;19.090;2022-12-20T05:08:24;37.22;;;14.57;;
75847;SDS011;65750;47.540;19.090;2022-12-20T05:10:52;42.28;;;14.25;;
75847;SDS011;65750;47.540;19.090;2022-12-20T05:13:19;37.33;;;13.35;;
75847;SDS011;65750;47.540;19.090;2022-12-20T05:15:49;38.42;;;12.98;;
75847;SDS011;65750;47.540;19.090;2022-12-20T05:18:21;41.00;;;13.95;;
75847;SDS011;65750;47.540;19.090;2022-12-20T05:20:48;35.83;;;13.35;;
75847;SDS011;65750;47.540;19.090;2022-12-20T05:23:43;36.17;;;13.25;;
75847;SDS011;65750;47.540;19.090;2022-12-20T05:26:28;34.67;;;12.17;;
75847;SDS011;65750;47.540;19.090;2022-12-20T05:28:59;36.67;;;12.25;;
75847;SDS011;65750;47.540;19.090;2022-12-20T05:31:26;37.80;;;13.35;;
75847;SDS011;65750;47.540;19.090;2022-12-20T05:33:55;33.45;;;12.10;;
75847;SDS011;65750;47.540;19.090;2022-12-20T05:36:24;32.90;;;12.90;;
75847;SDS011;65750;47.540;19.090;2022-12-20T05:38:53;38.22;;;13.45;;
75847;SDS011;65750;47.540;19.090;2022-12-20T05:41:20;33.90;;;12.77;;
75847;SDS011;65750;47.540;19.090;2022-12-20T05:43:48;36.83;;;14.05;;
75847;SDS011;65750;47.540;19.090;2022-12-20T05:46:15;41.88;;;13.95;;
75847;SDS011;65750;47.540;19.090;2022-12-20T05:48:44;37.58;;;14.25;;
75847;SDS011;65750;47.540;19.090;2022-12-20T05:51:13;36.75;;;12.95;;
75847;SDS011;65750;47.540;19.090;2022-12-20T05:53:41;36.00;;;13.60;;
75847;SDS011;65750;47.540;19.090;2022-12-20T05:56:10;37.47;;;13.55;;
75847;SDS011;65750;47.540;19.090;2022-12-20T05:58:37;37.20;;;14.43;;
75847;SDS011;65750;47.540;19.090;2022-12-20T06:01:05;35.28;;;12.60;;
75847;SDS011;65750;47.540;19.090;2022-12-20T06:03:33;34.95;;;13.80;;
75847;SDS011;65750;47.540;19.090;2022-12-20T06:06:01;34.42;;;12.98;;
75847;SDS011;65750;47.540;19.090;2022-12-20T06:08:30;36.45;;;13.30;;
75847;SDS011;65750;47.540;19.090;2022-12-20T06:10:57;36.13;;;13.07;;
75847;SDS011;65750;47.540;19.090;2022-12-20T06:13:26;34.15;;;12.15;;
75847;SDS011;65750;47.540;19.090;2022-12-20T06:15:53;33.75;;;12.10;;
75847;SDS011;65750;47.540;19.090;2022-12-20T06:18:20;36.30;;;13.70;;
75847;SDS011;65750;47.540;19.090;2022-12-20T06:20:48;35.20;;;12.45;;
75847;SDS011;65750;47.540;19.090;2022-12-20T06:23:17;35.45;;;13.18;;
75847;SDS011;65750;47.540;19.090;2022-12-20T06:25:47;36.90;;;13.27;;
75847;SDS011;65750;47.540;19.090;2022-12-20T06:28:14;33.23;;;12.77;;
75847;SDS011;65750;47.540;19.090;2022-12-20T06:30:50;39.95;;;14.87;;
75847;SDS011;65750;47.540;19.090;2022-12-20T06:33:18;38.83;;;13.75;;
75847;SDS011;65750;47.540;19.090;2022-12-20T06:35:46;34.38;;;12.88;;
75847;SDS011;65750;47.540;19.090;2022-12-20T06:38:12;37.67;;;12.80;;
75847;SDS011;65750;47.540;19.090;2022-12-20T06:40:39;33.05;;;11.85;;
75847;SDS011;65750;47.540;19.090;2022-12-20T06:43:08;37.45;;;13.30;;
75847;SDS011;65750;47.540;19.090;2022-12-20T06:45:35;36.53;;;13.65;;
75847;SDS011;65750;47.540;19.090;2022-12-20T06:48:03;36.03;;;13.25;;
75847;SDS011;65750;47.540;19.090;2022-12-20T06:50:31;40.47;;;14.38;;
75847;SDS011;65750;47.540;19.090;2022-12-20T06:52:58;38.43;;;13.80;;
75847;SDS011;65750;47.540;19.090;2022-12-20T06:55:25;39.90;;;14.20;;
75847;SDS011;65750;47.540;19.090;2022-12-20T06:57:53;38.22;;;14.00;;
75847;SDS011;65750;47.540;19.090;2022-12-20T07:00:22;39.70;;;13.77;;
75847;SDS011;65750;47.540;19.090;2022-12-20T07:02:49;37.35;;;13.77;;
75847;SDS011;65750;47.540;19.090;2022-12-20T07:05:17;40.30;;;14.57;;
75847;SDS011;65750;47.540;19.090;2022-12-20T07:07:44;39.20;;;14.68;;
75847;SDS011;65750;47.540;19.090;2022-12-20T07:10:11;46.08;;;15.88;;
75847;SDS011;65750;47.540;19.090;2022-12-20T07:12:38;44.58;;;17.65;;
75847;SDS011;65750;47.540;19.090;2022-12-20T07:15:06;42.45;;;15.50;;
75847;SDS011;65750;47.540;19.090;2022-12-20T07:17:35;45.03;;;15.30;;
75847;SDS011;65750;47.540;19.090;2022-12-20T07:20:03;38.80;;;15.25;;
75847;SDS011;65750;47.540;19.090;2022-12-20T07:22:31;38.55;;;13.85;;
75847;SDS011;65750;47.540;19.090;2022-12-20T07:24:59;35.97;;;13.90;;
75847;SDS011;65750;47.540;19.090;2022-12-20T07:27:26;35.50;;;13.32;;
75847;SDS011;65750;47.540;19.090;2022-12-20T07:29:53;38.63;;;13.88;;
75847;SDS011;65750;47.540;19.090;2022-12-20T07:32:21;35.85;;;12.85;;
75847;SDS011;65750;47.540;19.090;2022-12-20T07:34:49;32.53;;;13.00;;
75847;SDS011;65750;47.540;19.090;2022-12-20T07:37:16;29.23;;;11.20;;
75847;SDS011;65750;47.540;19.090;2022-12-20T07:39:43;34.25;;;12.60;;
75847;SDS011;65750;47.540;19.090;2022-12-20T07:42:11;35.80;;;12.90;;
75847;SDS011;65750;47.540;19.090;2022-12-20T07:44:39;34.22;;;12.57;;
75847;SDS011;65750;47.540;19.090;2022-12-20T07:47:07;34.53;;;12.27;;
75847;SDS011;65750;47.540;19.090;2022-12-20T07:49:35;31.73;;;12.10;;
75847;SDS011;65750;47.540;19.090;2022-12-20T07:52:04;26.42;;;10.52;;
75847;SDS011;65750;47.540;19.090;2022-12-20T07:54:32;29.98;;;11.57;;
75847;SDS011;65750;47.540;19.090;2022-12-20T07:57:03;31.58;;;11.40;;
75847;SDS011;65750;47.540;19.090;2022-12-20T07:59:33;31.52;;;11.65;;
75847;SDS011;65750;47.540;19.090;2022-12-20T08:02:02;29.00;;;10.70;;
75847;SDS011;65750;47.540;19.090;2022-12-20T08:04:30;29.63;;;11.32;;
75847;SDS011;65750;47.540;19.090;2022-12-20T08:06:58;31.15;;;11.32;;
75847;SDS011;65750;47.540;19.090;2022-12-20T08:09:27;31.20;;;11.65;;
75847;SDS011;65750;47.540;19.090;2022-12-20T08:11:56;32.38;;;12.10;;
75847;SDS011;65750;47.540;19.090;2022-12-20T08:14:23;34.10;;;12.88;;
75847;SDS011;65750;47.540;19.090;2022-12-20T08:16:51;34.45;;;12.77;;
75847;SDS011;65750;47.540;19.090;2022-12-20T08:19:18;31.87;;;13.23;;
75847;SDS011;65750;47.540;19.090;2022-12-20T08:21:46;35.80;;;13.43;;
75847;SDS011;65750;47.540;19.090;2022-12-20T08:24:13;36.45;;;14.25;;
75847;SDS011;65750;47.540;19.090;2022-12-20T08:26:42;35.63;;;13.20;;
75847;SDS011;65750;47.540;19.090;2022-12-20T08:29:09;34.17;;;12.77;;
75847;SDS011;65750;47.540;19.090;2022-12-20T08:31:36;32.47;;;12.30;;
75847;SDS011;65750;47.540;19.090;2022-12-20T08:34:03;31.62;;;11.98;;
75847;SDS011;65750;47.540;19.090;2022-12-20T08:36:30;31.52;;;12.02;;
75847;SDS011;65750;47.540;19.090;2022-12-20T08:39:00;27.45;;;11.12;;
75847;SDS011;65750;47.540;19.090;2022-12-20T08:41:28;29.95;;;11.75;;
75847;SDS011;65750;47.540;19.090;2022-12-20T08:43:56;28.58;;;11.15;;
75847;SDS011;65750;47.540;19.090;2022-12-20T08:46:23;30.73;;;12.13;;
75847;SDS011;65750;47.540;19.090;2022-12-20T08:48:50;25.48;;;11.25;;
75847;SDS011;65750;47.540;19.090;2022-12-20T08:51:17;28.15;;;10.95;;
75847;SDS011;65750;47.540;19.090;2022-12-20T08:53:47;30.02;;;12.57;;
75847;SDS011;65750;47.540;19.090;2022-12-20T08:56:15;27.83;;;12.20;;
75847;SDS011;65750;47.540;19.090;2022-12-20T08:58:43;26.67;;;10.67;;
75847;SDS011;65750;47.540;19.090;2022-12-20T09:01:13;27.75;;;11.52;;
75847;SDS011;65750;47.540;19.090;2022-12-20T09:03:41;25.40;;;10.88;;
75847;SDS011;65750;47.540;19.090;2022-12-20T09:06:10;24.75;;;10.77;;
75847;SDS011;65750;47.540;19.090;2022-12-20T09:08:39;24.48;;;11.00;;
75847;SDS011;65750;47.540;19.090;2022-12-20T09:11:07;23.53;;;10.07;;
75847;SDS011;65750;47.540;19.090;2022-12-20T09:13:36;25.58;;;11.35;;
75847;SDS011;65750;47.540;19.090;2022-12-20T09:16:03;25.83;;;11.38;;
75847;SDS011;65750;47.540;19.090;2022-12-20T09:18:33;25.73;;;11.65;;
75847;SDS011;65750;47.540;19.090;2022-12-20T09:21:00;26.05;;;10.93;;
75847;SDS011;65750;47.540;19.090;2022-12-20T09:23:28;24.10;;;11.03;;
75847;SDS011;65750;47.540;19.090;2022-12-20T09:26:00;24.37;;;11.18;;
75847;SDS011;65750;47.540;19.090;2022-12-20T09:28:28;25.02;;;11.60;;
75847;SDS011;65750;47.540;19.090;2022-12-20T09:30:56;25.90;;;11.57;;
75847;SDS011;65750;47.540;19.090;2022-12-20T09:33:24;24.55;;;10.77;;
75847;SDS011;65750;47.540;19.090;2022-12-20T09:35:52;25.40;;;11.00;;
75847;SDS011;65750;47.540;19.090;2022-12-20T09:38:20;23.33;;;10.98;;
75847;SDS011;65750;47.540;19.090;2022-12-20T09:40:48;26.33;;;11.38;;
75847;SDS011;65750;47.540;19.090;2022-12-20T09:43:17;26.17;;;11.52;;
75847;SDS011;65750;47.540;19.090;2022-12-20T09:45:45;26.90;;;11.07;;
75847;SDS011;65750;47.540;19.090;2022-12-20T09:48:15;26.70;;;10.87;;
75847;SDS011;65750;47.540;19.090;2022-12-20T09:50:45;23.65;;;10.98;;
75847;SDS011;65750;47.540;19.090;2022-12-20T09:53:23;23.67;;;10.43;;
75847;SDS011;65750;47.540;19.090;2022-12-20T09:55:57;23.25;;;10.43;;
75847;SDS011;65750;47.540;19.090;2022-12-20T09:58:30;25.00;;;9.85;;
75847;SDS011;65750;47.540;19.090;2022-12-20T10:01:13;24.95;;;10.25;;
75847;SDS011;65750;47.540;19.090;2022-12-20T10:03:42;24.50;;;10.20;;
75847;SDS011;65750;47.540;19.090;2022-12-20T10:06:15;25.80;;;10.25;;
75847;SDS011;65750;47.540;19.090;2022-12-20T10:08:49;24.40;;;9.32;;
75847;SDS011;65750;47.540;19.090;2022-12-20T10:11:24;25.33;;;10.25;;
75847;SDS011;65750;47.540;19.090;2022-12-20T10:14:04;27.73;;;11.02;;
75847;SDS011;65750;47.540;19.090;2022-12-20T10:16:38;26.10;;;10.65;;
75847;SDS011;65750;47.540;19.090;2022-12-20T10:19:12;32.50;;;11.45;;
75847;SDS011;65750;47.540;19.090;2022-12-20T10:21:50;26.98;;;10.25;;
75847;SDS011;65750;47.540;19.090;2022-12-20T10:24:24;25.33;;;10.85;;
75847;SDS011;65750;47.540;19.090;2022-12-20T10:26:54;22.75;;;10.02;;
75847;SDS011;65750;47.540;19.090;2022-12-20T10:29:24;23.83;;;8.73;;
75847;SDS011;65750;47.540;19.090;2022-12-20T10:31:51;24.48;;;9.63;;
75847;SDS011;65750;47.540;19.090;2022-12-20T10:34:20;30.23;;;10.02;;
75847;SDS011;65750;47.540;19.090;2022-12-20T10:36:50;24.35;;;9.70;;
75847;SDS011;65750;47.540;19.090;2022-12-20T10:39:39;27.35;;;10.63;;
75847;SDS011;65750;47.540;19.090;2022-12-20T10:42:20;23.65;;;9.18;;
75847;SDS011;65750;47.540;19.090;2022-12-20T10:44:50;26.85;;;10.63;;
75847;SDS011;65750;47.540;19.090;2022-12-20T10:47:21;26.60;;;10.10;;
75847;SDS011;65750;47.540;19.090;2022-12-20T10:49:51;27.27;;;9.90;;
75847;SDS011;65750;47.540;19.090;2022-12-20T10:52:35;21.98;;;9.30;;
75847;SDS011;65750;47.540;19.090;2022-12-20T10:55:03;26.30;;;10.60;;
75847;SDS011;65750;47.540;19.090;2022-12-20T10:58:00;26.45;;;10.65;;
75847;SDS011;65750;47.540;19.090;2022-12-20T11:00:29;31.17;;;9.90;;
75847;SDS011;65750;47.540;19.090;2022-12-20T11:03:09;19.85;;;8.68;;
75847;SDS011;65750;47.540;19.090;2022-12-20T11:05:38;26.48;;;9.60;;
75847;SDS011;65750;47.540;19.090;2022-12-20T11:08:11;23.50;;;9.15;;
75847;SDS011;65750;47.540;19.090;2022-12-20T11:10:41;22.92;;;9.30;;
75847;SDS011;65750;47.540;19.090;2022-12-20T11:13:20;27.05;;;9.50;;
75847;SDS011;65750;47.540;19.090;2022-12-20T11:15:51;25.48;;;9.57;;
75847;SDS011;65750;47.540;19.090;2022-12-20T11:18:24;25.12;;;9.40;;
75847;SDS011;65750;47.540;19.090;2022-12-20T11:20:56;26.10;;;10.25;;
75847;SDS011;65750;47.540;19.090;2022-12-20T11:23:33;26.08;;;9.52;;
75847;SDS011;65750;47.540;19.090;2022-12-20T11:26:09;22.80;;;9.30;;
75847;SDS011;65750;47.540;19.090;2022-12-20T11:28:50;28.87;;;10.00;;
75847;SDS011;65750;47.540;19.090;2022-12-20T11:31:27;23.95;;;9.52;;
75847;SDS011;65750;47.540;19.090;2022-12-20T11:34:09;27.15;;;10.40;;
75847;SDS011;65750;47.540;19.090;2022-12-20T11:36:49;23.92;;;9.48;;
75847;SDS011;65750;47.540;19.090;2022-12-20T11:39:25;26.75;;;10.02;;
75847;SDS011;65750;47.540;19.090;2022-12-20T11:41:58;24.90;;;9.30;;
75847;SDS011;65750;47.540;19.090;2022-12-20T11:44:31;27.23;;;9.95;;
75847;SDS011;65750;47.540;19.090;2022-12-20T11:47:23;24.98;;;9.75;;
75847;SDS011;65750;47.540;19.090;2022-12-20T11:50:02;26.73;;;9.48;;
75847;SDS011;65750;47.540;19.090;2022-12-20T11:52:40;25.92;;;9.60;;
75847;SDS011;65750;47.540;19.090;2022-12-20T11:55:16;27.00;;;9.75;;
75847;SDS011;65750;47.540;19.090;2022-12-20T11:57:47;27.42;;;9.70;;
75847;SDS011;65750;47.540;19.090;2022-12-20T12:00:20;24.92;;;10.05;;
75847;SDS011;65750;47.540;19.090;2022-12-20T12:02:49;23.58;;;9.52;;
75847;SDS011;65750;47.540;19.090;2022-12-20T12:05:19;21.52;;;9.23;;
75847;SDS011;65750;47.540;19.090;2022-12-20T12:07:51;26.48;;;10.65;;
75847;SDS011;65750;47.540;19.090;2022-12-20T12:10:21;25.90;;;9.98;;
75847;SDS011;65750;47.540;19.090;2022-12-20T12:12:51;27.80;;;9.75;;
75847;SDS011;65750;47.540;19.090;2022-12-20T12:15:26;23.12;;;9.20;;
75847;SDS011;65750;47.540;19.090;2022-12-20T12:17:57;25.25;;;10.48;;
75847;SDS011;65750;47.540;19.090;2022-12-20T12:20:28;25.90;;;9.10;;
75847;SDS011;65750;47.540;19.090;2022-12-20T12:23:01;22.58;;;9.23;;
75847;SDS011;65750;47.540;19.090;2022-12-20T12:25:32;28.40;;;10.23;;
75847;SDS011;65750;47.540;19.090;2022-12-20T12:28:00;26.37;;;10.57;;
75847;SDS011;65750;47.540;19.090;2022-12-20T12:30:27;23.48;;;9.40;;
75847;SDS011;65750;47.540;19.090;2022-12-20T12:33:02;26.20;;;10.38;;
75847;SDS011;65750;47.540;19.090;2022-12-20T12:35:52;25.98;;;9.75;;
75847;SDS011;65750;47.540;19.090;2022-12-20T12:38:35;29.77;;;10.35;;
75847;SDS011;65750;47.540;19.090;2022-12-20T12:41:24;25.60;;;9.80;;
75847;SDS011;65750;47.540;19.090;2022-12-20T12:44:01;23.65;;;9.75;;
75847;SDS011;65750;47.540;19.090;2022-12-20T12:46:32;25.27;;;9.65;;
75847;SDS011;65750;47.540;19.090;2022-12-20T12:49:01;24.90;;;9.73;;
75847;SDS011;65750;47.540;19.090;2022-12-20T12:51:31;27.87;;;10.45;;
75847;SDS011;65750;47.540;19.090;2022-12-20T12:54:03;26.48;;;10.27;;
75847;SDS011;65750;47.540;19.090;2022-12-20T12:56:43;30.67;;;12.25;;
75847;SDS011;65750;47.540;19.090;2022-12-20T12:59:21;27.62;;;9.73;;
75847;SDS011;65750;47.540;19.090;2022-12-20T13:05:00;23.80;;;9.50;;
75847;SDS011;65750;47.540;19.090;2022-12-20T13:07:50;22.90;;;9.60;;
75847;SDS011;65750;47.540;19.090;2022-12-20T13:13:27;22.05;;;8.98;;
75847;SDS011;65750;47.540;19.090;2022-12-20T13:16:05;22.45;;;9.60;;
75847;SDS011;65750;47.540;19.090;2022-12-20T13:18:36;24.70;;;8.93;;
75847;SDS011;65750;47.540;19.090;2022-12-20T13:21:17;25.30;;;9.75;;
75847;SDS011;65750;47.540;19.090;2022-12-20T13:27:03;27.87;;;9.18;;
75847;SDS011;65750;47.540;19.090;2022-12-20T13:29:57;24.60;;;9.77;;
75847;SDS011;65750;47.540;19.090;2022-12-20T13:38:48;25.85;;;10.05;;
75847;SDS011;65750;47.540;19.090;2022-12-20T13:41:20;25.20;;;9.27;;
75847;SDS011;65750;47.540;19.090;2022-12-20T13:43:52;24.08;;;9.73;;
75847;SDS011;65750;47.540;19.090;2022-12-20T13:46:21;25.58;;;9.50;;
75847;SDS011;65750;47.540;19.090;2022-12-20T13:48:51;24.75;;;9.25;;
75847;SDS011;65750;47.540;19.090;2022-12-20T13:51:20;25.88;;;9.25;;
75847;SDS011;65750;47.540;19.090;2022-12-20T13:53:50;26.00;;;9.52;;
75847;SDS011;65750;47.540;19.090;2022-12-20T13:56:32;28.27;;;11.00;;
75847;SDS011;65750;47.540;19.090;2022-12-20T13:59:03;25.67;;;10.18;;
75847;SDS011;65750;47.540;19.090;2022-12-20T14:01:33;33.40;;;11.30;;
75847;SDS011;65750;47.540;19.090;2022-12-20T14:04:02;27.13;;;10.07;;
75847;SDS011;65750;47.540;19.090;2022-12-20T14:06:31;30.50;;;10.30;;
75847;SDS011;65750;47.540;19.090;2022-12-20T14:08:58;26.75;;;9.88;;
75847;SDS011;65750;47.540;19.090;2022-12-20T14:11:26;25.35;;;10.07;;
75847;SDS011;65750;47.540;19.090;2022-12-20T14:13:54;30.67;;;11.38;;
75847;SDS011;65750;47.540;19.090;2022-12-20T14:16:22;25.00;;;10.45;;
75847;SDS011;65750;47.540;19.090;2022-12-20T14:19:00;25.42;;;10.60;;
75847;SDS011;65750;47.540;19.090;2022-12-20T14:21:28;29.35;;;11.15;;
75847;SDS011;65750;47.540;19.090;2022-12-20T14:23:56;27.73;;;10.75;;
75847;SDS011;65750;47.540;19.090;2022-12-20T14:26:25;29.20;;;11.50;;
75847;SDS011;65750;47.540;19.090;2022-12-20T14:28:54;27.67;;;10.98;;
75847;SDS011;65750;47.540;19.090;2022-12-20T14:31:23;28.33;;;11.50;;
75847;SDS011;65750;47.540;19.090;2022-12-20T14:34:01;28.87;;;10.80;;
75847;SDS011;65750;47.540;19.090;2022-12-20T14:36:29;29.45;;;11.27;;
75847;SDS011;65750;47.540;19.090;2022-12-20T14:38:57;30.65;;;12.25;;
75847;SDS011;65750;47.540;19.090;2022-12-20T14:41:31;28.77;;;11.30;;
75847;SDS011;65750;47.540;19.090;2022-12-20T14:44:02;29.33;;;11.93;;
75847;SDS011;65750;47.540;19.090;2022-12-20T14:46:35;29.52;;;11.43;;
75847;SDS011;65750;47.540;19.090;2022-12-20T14:49:05;29.63;;;11.77;;
75847;SDS011;65750;47.540;19.090;2022-12-20T14:51:38;32.78;;;11.75;;
75847;SDS011;65750;47.540;19.090;2022-12-20T14:54:06;32.35;;;11.93;;